RHP weather

Public forecast

Using degrees Celsius for public forecast. Weather courtesy of forecast.io.

Closest aviation weather report (METAR) to Ramechhap Airport

Closest report is Tribhuvan International Airport, 41.6 nm (77.0 km) WNW. Retrieved 2020/08/11 09:20 UTC (0 seconds ago):

VNKT 110920Z 23007KT 7000 DZ FEW015 FEW025CB SCT030 BKN100 27/22 Q1007 NOSIG CB TO W NW N AND NE

Closest aviation forecast (TAF) to Ramechhap Airport

Closest forecast is Tribhuvan International Airport, 41.6 nm (77.0 km) WNW. Retrieved 2020/08/11 06:51 UTC (2 hours ago):

TAF VNKT 110500Z 1106/1206 15004KT 7000 FEW010 SCT030 BKN100 BECMG 1107/1108 25006KT 8000 FEW015 SCT030 BKN100 PROB40 1108/1114 21008KT 5000 -TSRA FEW025CB OVC090 BECMG 1114/1115 VRB02KT 6000 FEW010 SCT030 BKN100 BECMG 1200/1202 5000 -RA/BR FEW008 SCT030 BKN100 BECMG 1204/1205 14003KT 7000 FEW010 SCT030 BKN100